sensor_id;sensor_type;location;lat;lon;timestamp;pressure;altitude;pressure_sealevel;temperature;humidity
43701;BME280;58809;47.984;7.964;2023-02-20T00:02:08;98426.47;;;6.87;88.62
43701;BME280;58809;47.984;7.964;2023-02-20T00:05:12;98442.44;;;6.96;87.94
43701;BME280;58809;47.984;7.964;2023-02-20T00:08:13;98444.69;;;7.00;87.50
43701;BME280;58809;47.984;7.964;2023-02-20T00:11:15;98438.31;;;7.03;87.16
43701;BME280;58809;47.984;7.964;2023-02-20T00:14:16;98441.25;;;7.00;86.89
43701;BME280;58809;47.984;7.964;2023-02-20T00:17:18;98435.50;;;6.94;87.82
43701;BME280;58809;47.984;7.964;2023-02-20T00:20:22;98440.56;;;6.86;87.83
43701;BME280;58809;47.984;7.964;2023-02-20T00:23:24;98433.31;;;6.79;88.36
43701;BME280;58809;47.984;7.964;2023-02-20T00:26:25;98440.28;;;6.68;89.19
43701;BME280;58809;47.984;7.964;2023-02-20T00:29:27;98431.81;;;6.65;90.43
43701;BME280;58809;47.984;7.964;2023-02-20T00:32:28;98436.47;;;6.61;90.80
43701;BME280;58809;47.984;7.964;2023-02-20T00:35:30;98430.28;;;6.62;90.92
43701;BME280;58809;47.984;7.964;2023-02-20T00:38:31;98419.41;;;6.55;91.29
43701;BME280;58809;47.984;7.964;2023-02-20T00:41:35;98424.59;;;6.46;90.95
43701;BME280;58809;47.984;7.964;2023-02-20T00:44:36;98426.69;;;6.31;92.02
43701;BME280;58809;47.984;7.964;2023-02-20T00:47:40;98430.53;;;6.27;92.97
43701;BME280;58809;47.984;7.964;2023-02-20T00:50:41;98427.63;;;6.30;93.32
43701;BME280;58809;47.984;7.964;2023-02-20T00:53:43;98433.97;;;6.27;92.80
43701;BME280;58809;47.984;7.964;2023-02-20T00:56:44;98428.25;;;6.22;93.37
43701;BME280;58809;47.984;7.964;2023-02-20T00:59:46;98423.63;;;6.14;93.27
43701;BME280;58809;47.984;7.964;2023-02-20T01:02:48;98432.44;;;6.13;94.29
43701;BME280;58809;47.984;7.964;2023-02-20T01:05:49;98437.38;;;6.07;95.07
43701;BME280;58809;47.984;7.964;2023-02-20T01:08:52;98443.56;;;6.06;94.67
43701;BME280;58809;47.984;7.964;2023-02-20T01:11:54;98441.22;;;6.03;95.50
43701;BME280;58809;47.984;7.964;2023-02-20T01:14:56;98443.22;;;6.10;95.71
43701;BME280;58809;47.984;7.964;2023-02-20T01:17:57;98436.75;;;6.14;95.66
43701;BME280;58809;47.984;7.964;2023-02-20T01:20:59;98436.75;;;6.14;95.28
43701;BME280;58809;47.984;7.964;2023-02-20T01:24:00;98428.97;;;6.13;94.71
43701;BME280;58809;47.984;7.964;2023-02-20T01:27:02;98429.09;;;6.11;95.68
43701;BME280;58809;47.984;7.964;2023-02-20T01:30:04;98422.06;;;6.12;95.33
43701;BME280;58809;47.984;7.964;2023-02-20T01:33:06;98422.31;;;6.09;95.19
43701;BME280;58809;47.984;7.964;2023-02-20T01:36:08;98424.94;;;6.09;95.38
43701;BME280;58809;47.984;7.964;2023-02-20T01:39:10;98421.59;;;6.07;95.25
43701;BME280;58809;47.984;7.964;2023-02-20T01:42:16;98429.22;;;6.10;95.70
43701;BME280;58809;47.984;7.964;2023-02-20T01:45:26;98429.81;;;6.13;95.65
43701;BME280;58809;47.984;7.964;2023-02-20T01:48:29;98429.81;;;6.13;95.79
43701;BME280;58809;47.984;7.964;2023-02-20T01:51:35;98418.72;;;6.10;95.67
43701;BME280;58809;47.984;7.964;2023-02-20T01:54:40;98434.03;;;6.05;96.16
43701;BME280;58809;47.984;7.964;2023-02-20T01:57:50;98427.72;;;5.96;96.22
43701;BME280;58809;47.984;7.964;2023-02-20T02:00:54;98426.25;;;5.92;97.09
43701;BME280;58809;47.984;7.964;2023-02-20T02:04:00;98427.81;;;5.83;96.95
43701;BME280;58809;47.984;7.964;2023-02-20T02:07:02;98424.22;;;5.84;97.79
43701;BME280;58809;47.984;7.964;2023-02-20T02:10:09;98415.53;;;5.72;97.63
43701;BME280;58809;47.984;7.964;2023-02-20T02:13:13;98414.56;;;5.62;98.65
43701;BME280;58809;47.984;7.964;2023-02-20T02:19:54;98407.06;;;5.35;99.89
43701;BME280;58809;47.984;7.964;2023-02-20T02:26:17;98405.81;;;5.16;100.00
43701;BME280;58809;47.984;7.964;2023-02-20T02:36:08;98410.44;;;4.90;100.00
43701;BME280;58809;47.984;7.964;2023-02-20T02:39:22;98415.44;;;4.82;100.00
43701;BME280;58809;47.984;7.964;2023-02-20T02:46:36;98407.38;;;4.61;100.00
43701;BME280;58809;47.984;7.964;2023-02-20T02:49:54;98398.53;;;4.51;100.00
43701;BME280;58809;47.984;7.964;2023-02-20T02:52:58;98401.69;;;4.43;100.00
43701;BME280;58809;47.984;7.964;2023-02-20T02:55:59;98397.75;;;4.37;100.00
43701;BME280;58809;47.984;7.964;2023-02-20T02:59:24;98393.75;;;4.20;100.00
43701;BME280;58809;47.984;7.964;2023-02-20T03:02:32;98374.78;;;4.17;100.00
43701;BME280;58809;47.984;7.964;2023-02-20T03:05:48;98377.63;;;4.14;100.00
43701;BME280;58809;47.984;7.964;2023-02-20T03:09:17;98382.84;;;4.14;100.00
43701;BME280;58809;47.984;7.964;2023-02-20T03:12:24;98381.41;;;4.10;100.00
43701;BME280;58809;47.984;7.964;2023-02-20T03:15:33;98376.34;;;3.95;100.00
43701;BME280;58809;47.984;7.964;2023-02-20T03:18:39;98376.44;;;3.94;100.00
43701;BME280;58809;47.984;7.964;2023-02-20T03:21:43;98386.97;;;3.81;100.00
43701;BME280;58809;47.984;7.964;2023-02-20T03:24:49;98386.47;;;3.76;100.00
43701;BME280;58809;47.984;7.964;2023-02-20T03:28:13;98375.38;;;3.72;100.00
43701;BME280;58809;47.984;7.964;2023-02-20T03:31:21;98377.38;;;3.69;100.00
43701;BME280;58809;47.984;7.964;2023-02-20T03:34:27;98370.66;;;3.64;100.00
43701;BME280;58809;47.984;7.964;2023-02-20T03:37:49;98369.66;;;3.54;100.00
43701;BME280;58809;47.984;7.964;2023-02-20T03:41:12;98367.97;;;3.53;100.00
43701;BME280;58809;47.984;7.964;2023-02-20T03:44:35;98373.22;;;3.53;100.00
43701;BME280;58809;47.984;7.964;2023-02-20T03:47:43;98372.47;;;3.51;100.00
43701;BME280;58809;47.984;7.964;2023-02-20T03:50:47;98368.31;;;3.49;100.00
43701;BME280;58809;47.984;7.964;2023-02-20T03:53:50;98369.47;;;3.44;100.00
43701;BME280;58809;47.984;7.964;2023-02-20T03:56:57;98359.94;;;3.43;100.00
43701;BME280;58809;47.984;7.964;2023-02-20T04:00:07;98365.19;;;3.43;100.00
43701;BME280;58809;47.984;7.964;2023-02-20T04:03:26;98360.25;;;3.39;100.00
43701;BME280;58809;47.984;7.964;2023-02-20T04:06:31;98360.16;;;3.27;100.00
43701;BME280;58809;47.984;7.964;2023-02-20T04:09:40;98358.91;;;3.20;100.00
43701;BME280;58809;47.984;7.964;2023-02-20T04:12:44;98358.00;;;3.21;100.00
43701;BME280;58809;47.984;7.964;2023-02-20T04:15:48;98350.69;;;3.14;100.00
43701;BME280;58809;47.984;7.964;2023-02-20T04:18:50;98344.19;;;3.06;100.00
43701;BME280;58809;47.984;7.964;2023-02-20T04:21:58;98358.44;;;3.02;100.00
43701;BME280;58809;47.984;7.964;2023-02-20T04:25:11;98354.44;;;3.10;100.00
43701;BME280;58809;47.984;7.964;2023-02-20T04:28:16;98368.13;;;3.00;100.00
43701;BME280;58809;47.984;7.964;2023-02-20T04:31:29;98349.72;;;2.89;100.00
43701;BME280;58809;47.984;7.964;2023-02-20T04:34:31;98350.25;;;2.81;100.00
43701;BME280;58809;47.984;7.964;2023-02-20T04:37:35;98350.59;;;2.77;100.00
43701;BME280;58809;47.984;7.964;2023-02-20T04:40:36;98355.28;;;2.72;100.00
43701;BME280;58809;47.984;7.964;2023-02-20T04:43:39;98354.84;;;2.65;100.00
43701;BME280;58809;47.984;7.964;2023-02-20T04:46:41;98356.72;;;2.63;100.00
43701;BME280;58809;47.984;7.964;2023-02-20T04:49:43;98355.16;;;2.60;100.00
43701;BME280;58809;47.984;7.964;2023-02-20T04:52:48;98353.81;;;2.55;100.00
43701;BME280;58809;47.984;7.964;2023-02-20T04:55:50;98349.81;;;2.62;100.00
43701;BME280;58809;47.984;7.964;2023-02-20T04:58:55;98350.44;;;2.65;100.00
43701;BME280;58809;47.984;7.964;2023-02-20T05:01:57;98360.25;;;2.62;100.00
43701;BME280;58809;47.984;7.964;2023-02-20T05:05:01;98351.91;;;2.57;100.00
43701;BME280;58809;47.984;7.964;2023-02-20T05:08:04;98349.41;;;2.55;100.00
43701;BME280;58809;47.984;7.964;2023-02-20T05:11:06;98346.25;;;2.50;100.00
43701;BME280;58809;47.984;7.964;2023-02-20T05:14:08;98352.72;;;2.44;100.00
43701;BME280;58809;47.984;7.964;2023-02-20T05:17:09;98352.59;;;2.33;100.00
43701;BME280;58809;47.984;7.964;2023-02-20T05:20:12;98341.81;;;2.25;100.00
43701;BME280;58809;47.984;7.964;2023-02-20T05:23:14;98347.34;;;2.20;100.00
43701;BME280;58809;47.984;7.964;2023-02-20T05:26:20;98348.22;;;2.06;100.00
43701;BME280;58809;47.984;7.964;2023-02-20T05:29:22;98355.31;;;2.04;100.00
43701;BME280;58809;47.984;7.964;2023-02-20T05:32:26;98345.72;;;2.05;100.00
43701;BME280;58809;47.984;7.964;2023-02-20T05:35:27;98344.25;;;2.01;100.00
43701;BME280;58809;47.984;7.964;2023-02-20T05:38:29;98344.44;;;1.98;100.00
43701;BME280;58809;47.984;7.964;2023-02-20T05:41:31;98333.25;;;1.96;100.00
43701;BME280;58809;47.984;7.964;2023-02-20T05:44:33;98321.06;;;1.96;100.00
43701;BME280;58809;47.984;7.964;2023-02-20T05:47:37;98334.94;;;1.97;100.00
43701;BME280;58809;47.984;7.964;2023-02-20T05:50:39;98333.75;;;1.88;100.00
43701;BME280;58809;47.984;7.964;2023-02-20T05:53:41;98334.25;;;1.80;100.00
43701;BME280;58809;47.984;7.964;2023-02-20T05:56:43;98332.28;;;1.84;100.00
43701;BME280;58809;47.984;7.964;2023-02-20T05:59:45;98334.44;;;1.77;100.00
43701;BME280;58809;47.984;7.964;2023-02-20T06:02:47;98332.47;;;1.81;100.00
43701;BME280;58809;47.984;7.964;2023-02-20T06:05:48;98342.00;;;1.82;100.00
43701;BME280;58809;47.984;7.964;2023-02-20T06:08:50;98331.66;;;1.80;100.00
43701;BME280;58809;47.984;7.964;2023-02-20T06:11:55;98328.84;;;1.83;100.00
43701;BME280;58809;47.984;7.964;2023-02-20T06:14:57;98334.41;;;1.91;100.00
43701;BME280;58809;47.984;7.964;2023-02-20T06:17:59;98340.66;;;1.89;100.00
43701;BME280;58809;47.984;7.964;2023-02-20T06:21:00;98336.69;;;1.83;100.00
43701;BME280;58809;47.984;7.964;2023-02-20T06:24:02;98340.31;;;1.81;100.00
43701;BME280;58809;47.984;7.964;2023-02-20T06:27:03;98339.75;;;1.76;100.00
43701;BME280;58809;47.984;7.964;2023-02-20T06:30:07;98337.31;;;1.60;100.00
43701;BME280;58809;47.984;7.964;2023-02-20T06:33:08;98347.81;;;1.58;100.00
43701;BME280;58809;47.984;7.964;2023-02-20T06:36:18;98348.00;;;1.55;100.00
43701;BME280;58809;47.984;7.964;2023-02-20T06:39:20;98346.88;;;1.59;100.00
43701;BME280;58809;47.984;7.964;2023-02-20T06:42:22;98349.31;;;1.62;100.00
43701;BME280;58809;47.984;7.964;2023-02-20T06:45:23;98356.22;;;1.63;100.00
43701;BME280;58809;47.984;7.964;2023-02-20T06:48:25;98356.72;;;1.68;100.00
43701;BME280;58809;47.984;7.964;2023-02-20T06:51:30;98348.84;;;1.56;100.00
43701;BME280;58809;47.984;7.964;2023-02-20T06:54:32;98350.78;;;1.66;100.00
43701;BME280;58809;47.984;7.964;2023-02-20T06:57:34;98359.16;;;1.71;100.00
43701;BME280;58809;47.984;7.964;2023-02-20T07:00:36;98357.28;;;1.73;100.00
43701;BME280;58809;47.984;7.964;2023-02-20T07:03:37;98361.19;;;1.81;100.00
43701;BME280;58809;47.984;7.964;2023-02-20T07:06:39;98357.09;;;1.77;100.00
43701;BME280;58809;47.984;7.964;2023-02-20T07:09:40;98354.34;;;1.92;100.00
43701;BME280;58809;47.984;7.964;2023-02-20T07:12:44;98354.00;;;2.11;100.00
43701;BME280;58809;47.984;7.964;2023-02-20T07:15:46;98348.19;;;2.21;100.00
43701;BME280;58809;47.984;7.964;2023-02-20T07:18:52;98355.94;;;2.35;100.00
43701;BME280;58809;47.984;7.964;2023-02-20T07:21:53;98351.91;;;2.44;100.00
43701;BME280;58809;47.984;7.964;2023-02-20T07:24:55;98355.16;;;2.60;100.00
43701;BME280;58809;47.984;7.964;2023-02-20T07:27:56;98352.34;;;2.76;100.00
43701;BME280;58809;47.984;7.964;2023-02-20T07:30:58;98350.97;;;2.83;100.00
43701;BME280;58809;47.984;7.964;2023-02-20T07:33:59;98355.91;;;2.88;99.59
43701;BME280;58809;47.984;7.964;2023-02-20T07:37:08;98357.56;;;3.02;99.72
43701;BME280;58809;47.984;7.964;2023-02-20T07:40:11;98348.16;;;3.12;99.17
43701;BME280;58809;47.984;7.964;2023-02-20T07:43:13;98355.16;;;3.24;98.45
43701;BME280;58809;47.984;7.964;2023-02-20T07:46:16;98356.06;;;3.36;98.11
43701;BME280;58809;47.984;7.964;2023-02-20T07:49:20;98352.63;;;3.49;98.18
43701;BME280;58809;47.984;7.964;2023-02-20T07:52:22;98355.81;;;3.65;97.98
43701;BME280;58809;47.984;7.964;2023-02-20T07:55:23;98357.31;;;3.80;97.15
43701;BME280;58809;47.984;7.964;2023-02-20T07:58:25;98354.78;;;3.92;96.60
43701;BME280;58809;47.984;7.964;2023-02-20T08:01:27;98358.19;;;4.05;96.70
43701;BME280;58809;47.984;7.964;2023-02-20T08:04:29;98360.84;;;4.16;95.90
43701;BME280;58809;47.984;7.964;2023-02-20T08:07:31;98361.41;;;4.33;95.69
43701;BME280;58809;47.984;7.964;2023-02-20T08:10:32;98366.09;;;4.52;94.68
43701;BME280;58809;47.984;7.964;2023-02-20T08:13:34;98351.97;;;4.66;94.50
43701;BME280;58809;47.984;7.964;2023-02-20T08:16:35;98349.38;;;4.77;93.52
43701;BME280;58809;47.984;7.964;2023-02-20T08:19:37;98357.63;;;4.84;93.80
43701;BME280;58809;47.984;7.964;2023-02-20T08:22:38;98354.06;;;4.96;94.35
43701;BME280;58809;47.984;7.964;2023-02-20T08:25:42;98354.81;;;5.09;94.00
43701;BME280;58809;47.984;7.964;2023-02-20T08:28:46;98356.94;;;5.27;92.42
43701;BME280;58809;47.984;7.964;2023-02-20T08:31:47;98363.03;;;5.38;91.42
43701;BME280;58809;47.984;7.964;2023-02-20T08:34:49;98354.31;;;5.49;89.76
43701;BME280;58809;47.984;7.964;2023-02-20T08:37:50;98340.22;;;5.62;88.83
43701;BME280;58809;47.984;7.964;2023-02-20T08:40:52;98335.31;;;5.68;87.56
43701;BME280;58809;47.984;7.964;2023-02-20T08:43:54;98329.91;;;5.81;87.28
43701;BME280;58809;47.984;7.964;2023-02-20T08:46:56;98341.72;;;5.98;86.56
43701;BME280;58809;47.984;7.964;2023-02-20T08:49:57;98336.41;;;6.09;86.01
43701;BME280;58809;47.984;7.964;2023-02-20T08:52:59;98339.72;;;6.23;85.54
43701;BME280;58809;47.984;7.964;2023-02-20T08:56:00;98331.41;;;6.39;85.09
43701;BME280;58809;47.984;7.964;2023-02-20T08:59:02;98326.66;;;6.53;84.97
43701;BME280;58809;47.984;7.964;2023-02-20T09:02:04;98326.59;;;6.65;84.55
43701;BME280;58809;47.984;7.964;2023-02-20T09:05:06;98334.00;;;6.71;83.87
43701;BME280;58809;47.984;7.964;2023-02-20T09:08:08;98322.94;;;6.77;82.96
43701;BME280;58809;47.984;7.964;2023-02-20T09:11:09;98311.97;;;6.93;82.63
43701;BME280;58809;47.984;7.964;2023-02-20T09:14:12;98319.41;;;7.09;81.29
43701;BME280;58809;47.984;7.964;2023-02-20T09:17:14;98315.81;;;7.20;80.39
43701;BME280;58809;47.984;7.964;2023-02-20T09:20:18;98318.22;;;7.32;79.42
43701;BME280;58809;47.984;7.964;2023-02-20T09:23:21;98308.69;;;7.41;78.64
43701;BME280;58809;47.984;7.964;2023-02-20T09:26:25;98307.63;;;7.63;78.13
43701;BME280;58809;47.984;7.964;2023-02-20T09:29:27;98307.38;;;7.76;77.08
43701;BME280;58809;47.984;7.964;2023-02-20T09:32:29;98307.00;;;7.90;75.82
43701;BME280;58809;47.984;7.964;2023-02-20T09:35:30;98297.00;;;8.04;75.22
43701;BME280;58809;47.984;7.964;2023-02-20T09:38:32;98297.72;;;8.16;74.66
43701;BME280;58809;47.984;7.964;2023-02-20T09:44:53;98292.59;;;8.43;73.34
43701;BME280;58809;47.984;7.964;2023-02-20T09:51:25;98285.31;;;8.75;71.82
43701;BME280;58809;47.984;7.964;2023-02-20T09:57:34;98274.69;;;9.04;70.02
43701;BME280;58809;47.984;7.964;2023-02-20T10:00:37;98277.81;;;9.17;69.00
43701;BME280;58809;47.984;7.964;2023-02-20T10:03:55;98271.38;;;9.30;68.13
43701;BME280;58809;47.984;7.964;2023-02-20T10:07:07;98271.16;;;9.41;66.93
43701;BME280;58809;47.984;7.964;2023-02-20T10:10:29;98273.78;;;9.51;66.37
43701;BME280;58809;47.984;7.964;2023-02-20T10:17:06;98274.91;;;9.66;64.33
43701;BME280;58809;47.984;7.964;2023-02-20T10:20:32;98274.28;;;9.82;63.40
43701;BME280;58809;47.984;7.964;2023-02-20T10:26:45;98269.97;;;9.99;63.29
43701;BME280;58809;47.984;7.964;2023-02-20T10:29:48;98275.63;;;10.04;62.43
43701;BME280;58809;47.984;7.964;2023-02-20T10:33:19;98273.19;;;10.11;62.23
43701;BME280;58809;47.984;7.964;2023-02-20T10:36:25;98275.47;;;10.24;61.72
43701;BME280;58809;47.984;7.964;2023-02-20T10:39:30;98273.19;;;10.29;61.37
43701;BME280;58809;47.984;7.964;2023-02-20T10:42:50;98268.31;;;10.34;60.75
43701;BME280;58809;47.984;7.964;2023-02-20T10:49:59;98252.97;;;10.37;60.76
43701;BME280;58809;47.984;7.964;2023-02-20T10:53:08;98251.50;;;10.43;60.93
43701;BME280;58809;47.984;7.964;2023-02-20T10:56:15;98256.03;;;10.51;60.88
43701;BME280;58809;47.984;7.964;2023-02-20T11:02:42;98251.63;;;10.59;60.78
43701;BME280;58809;47.984;7.964;2023-02-20T11:05:50;98244.13;;;10.55;60.63
43701;BME280;58809;47.984;7.964;2023-02-20T11:08:53;98230.50;;;10.68;60.77
43701;BME280;58809;47.984;7.964;2023-02-20T11:11:55;98234.91;;;10.85;60.92
43701;BME280;58809;47.984;7.964;2023-02-20T11:14:59;98217.84;;;10.88;60.80
43701;BME280;58809;47.984;7.964;2023-02-20T11:18:06;98220.41;;;10.97;61.19
43701;BME280;58809;47.984;7.964;2023-02-20T11:21:32;98216.81;;;11.15;60.77
43701;BME280;58809;47.984;7.964;2023-02-20T11:24:35;98205.75;;;11.20;60.59
43701;BME280;58809;47.984;7.964;2023-02-20T11:27:37;98201.66;;;11.33;60.70
43701;BME280;58809;47.984;7.964;2023-02-20T11:30:43;98197.72;;;11.38;60.41
43701;BME280;58809;47.984;7.964;2023-02-20T11:33:46;98191.41;;;11.39;60.25
43701;BME280;58809;47.984;7.964;2023-02-20T11:36:52;98183.66;;;11.45;59.82
43701;BME280;58809;47.984;7.964;2023-02-20T11:39:58;98169.06;;;11.49;59.65
43701;BME280;58809;47.984;7.964;2023-02-20T11:43:42;98166.25;;;11.59;59.20
43701;BME280;58809;47.984;7.964;2023-02-20T11:47:28;98146.88;;;11.75;59.03
43701;BME280;58809;47.984;7.964;2023-02-20T11:54:05;98116.78;;;11.92;58.39
43701;BME280;58809;47.984;7.964;2023-02-20T11:57:24;98105.28;;;12.08;57.82
43701;BME280;58809;47.984;7.964;2023-02-20T12:00:49;98103.75;;;12.30;58.08
43701;BME280;58809;47.984;7.964;2023-02-20T12:03:55;98115.84;;;12.41;57.08
43701;BME280;58809;47.984;7.964;2023-02-20T12:06:57;98117.34;;;12.36;57.49
43701;BME280;58809;47.984;7.964;2023-02-20T12:10:09;98104.56;;;12.47;57.72
43701;BME280;58809;47.984;7.964;2023-02-20T12:13:16;98094.22;;;12.52;57.37
43701;BME280;58809;47.984;7.964;2023-02-20T12:16:25;98091.28;;;12.47;57.39
43701;BME280;58809;47.984;7.964;2023-02-20T12:22:55;98088.91;;;12.52;56.97
43701;BME280;58809;47.984;7.964;2023-02-20T12:29:52;98081.66;;;12.86;56.80
43701;BME280;58809;47.984;7.964;2023-02-20T12:42:31;98093.25;;;13.16;55.54
43701;BME280;58809;47.984;7.964;2023-02-20T12:45:51;98077.31;;;13.16;56.20
43701;BME280;58809;47.984;7.964;2023-02-20T12:56:28;98079.94;;;13.24;55.38
43701;BME280;58809;47.984;7.964;2023-02-20T12:59:49;98073.78;;;13.24;55.35
43701;BME280;58809;47.984;7.964;2023-02-20T13:03:01;98083.88;;;13.28;55.52
43701;BME280;58809;47.984;7.964;2023-02-20T13:06:07;98080.22;;;13.29;55.67
43701;BME280;58809;47.984;7.964;2023-02-20T13:09:23;98067.72;;;13.38;55.29
43701;BME280;58809;47.984;7.964;2023-02-20T13:12:27;98064.72;;;13.41;55.35
43701;BME280;58809;47.984;7.964;2023-02-20T13:15:42;98079.31;;;13.45;54.83
43701;BME280;58809;47.984;7.964;2023-02-20T13:18:54;98064.38;;;13.44;54.77
43701;BME280;58809;47.984;7.964;2023-02-20T13:21:59;98064.13;;;13.54;54.34
43701;BME280;58809;47.984;7.964;2023-02-20T13:28:40;98047.72;;;13.65;53.76
43701;BME280;58809;47.984;7.964;2023-02-20T13:31:50;98040.06;;;13.85;53.90
43701;BME280;58809;47.984;7.964;2023-02-20T13:34:53;98032.03;;;14.09;53.42
43701;BME280;58809;47.984;7.964;2023-02-20T13:37:56;98030.66;;;14.13;52.76
43701;BME280;58809;47.984;7.964;2023-02-20T13:41:08;98012.28;;;14.18;52.08
43701;BME280;58809;47.984;7.964;2023-02-20T13:47:34;98020.91;;;14.20;52.02
43701;BME280;58809;47.984;7.964;2023-02-20T13:50:39;98009.50;;;14.41;51.15
43701;BME280;58809;47.984;7.964;2023-02-20T13:53:48;98004.66;;;14.30;50.95
43701;BME280;58809;47.984;7.964;2023-02-20T13:56:58;97997.03;;;14.41;51.23
43701;BME280;58809;47.984;7.964;2023-02-20T14:00:19;97991.22;;;14.53;50.24
43701;BME280;58809;47.984;7.964;2023-02-20T14:03:26;97995.38;;;14.40;50.61
43701;BME280;58809;47.984;7.964;2023-02-20T14:06:28;97984.94;;;14.24;50.85
43701;BME280;58809;47.984;7.964;2023-02-20T14:09:30;97984.19;;;14.30;51.19
43701;BME280;58809;47.984;7.964;2023-02-20T14:12:33;97985.94;;;14.38;51.40
43701;BME280;58809;47.984;7.964;2023-02-20T14:15:57;97974.97;;;14.48;50.58
43701;BME280;58809;47.984;7.964;2023-02-20T14:19:05;97965.97;;;14.49;49.97
43701;BME280;58809;47.984;7.964;2023-02-20T14:25:25;97971.38;;;14.92;49.69
43701;BME280;58809;47.984;7.964;2023-02-20T14:28:32;97949.28;;;14.98;49.11
43701;BME280;58809;47.984;7.964;2023-02-20T14:31:37;97956.47;;;15.19;50.04
43701;BME280;58809;47.984;7.964;2023-02-20T14:41:22;97940.28;;;15.20;50.14
43701;BME280;58809;47.984;7.964;2023-02-20T14:44:24;97941.88;;;15.43;50.08
43701;BME280;58809;47.984;7.964;2023-02-20T14:47:26;97939.09;;;16.21;48.92
43701;BME280;58809;47.984;7.964;2023-02-20T14:50:30;97938.03;;;16.77;47.91
43701;BME280;58809;47.984;7.964;2023-02-20T14:53:32;97935.78;;;16.81;48.16
43701;BME280;58809;47.984;7.964;2023-02-20T14:56:33;97940.38;;;16.39;48.68
43701;BME280;58809;47.984;7.964;2023-02-20T14:59:38;97931.25;;;16.13;49.07
43701;BME280;58809;47.984;7.964;2023-02-20T15:02:41;97914.31;;;15.92;49.87
43701;BME280;58809;47.984;7.964;2023-02-20T15:05:44;97924.19;;;15.92;49.67
43701;BME280;58809;47.984;7.964;2023-02-20T15:08:55;97915.19;;;15.71;49.39
43701;BME280;58809;47.984;7.964;2023-02-20T15:11:57;97917.41;;;15.68;49.36
43701;BME280;58809;47.984;7.964;2023-02-20T15:15:09;97910.03;;;15.63;49.40
43701;BME280;58809;47.984;7.964;2023-02-20T15:18:38;97906.53;;;15.34;49.64
43701;BME280;58809;47.984;7.964;2023-02-20T15:21:40;97904.47;;;15.30;49.93
43701;BME280;58809;47.984;7.964;2023-02-20T15:24:43;97908.50;;;15.26;49.88
43701;BME280;58809;47.984;7.964;2023-02-20T15:32:26;97900.91;;;15.51;49.81
43701;BME280;58809;47.984;7.964;2023-02-20T15:35:30;97905.34;;;15.72;49.40
43701;BME280;58809;47.984;7.964;2023-02-20T15:38:34;97901.84;;;15.71;49.01
43701;BME280;58809;47.984;7.964;2023-02-20T15:41:35;97897.22;;;15.52;49.63
43701;BME280;58809;47.984;7.964;2023-02-20T15:44:37;97902.81;;;15.29;50.00
43701;BME280;58809;47.984;7.964;2023-02-20T15:47:39;97905.09;;;15.32;50.11
43701;BME280;58809;47.984;7.964;2023-02-20T15:50:41;97903.59;;;15.86;49.02
43701;BME280;58809;47.984;7.964;2023-02-20T15:53:43;97899.63;;;16.16;48.33
43701;BME280;58809;47.984;7.964;2023-02-20T15:56:46;97891.72;;;15.88;48.81
43701;BME280;58809;47.984;7.964;2023-02-20T15:59:48;97893.44;;;15.39;49.83
43701;BME280;58809;47.984;7.964;2023-02-20T16:02:50;97884.97;;;15.01;50.77
43701;BME280;58809;47.984;7.964;2023-02-20T16:05:52;97885.38;;;14.76;51.07
43701;BME280;58809;47.984;7.964;2023-02-20T16:08:54;97882.47;;;14.71;51.30
43701;BME280;58809;47.984;7.964;2023-02-20T16:11:56;97875.28;;;14.72;51.50
43701;BME280;58809;47.984;7.964;2023-02-20T16:14:58;97892.22;;;14.64;52.19
43701;BME280;58809;47.984;7.964;2023-02-20T16:18:00;97879.72;;;14.28;52.82
43701;BME280;58809;47.984;7.964;2023-02-20T16:21:02;97882.56;;;13.75;53.72
43701;BME280;58809;47.984;7.964;2023-02-20T16:24:03;97872.03;;;13.37;54.79
43701;BME280;58809;47.984;7.964;2023-02-20T16:27:05;97881.13;;;13.05;55.62
43701;BME280;58809;47.984;7.964;2023-02-20T16:33:33;97881.47;;;12.09;60.05
43701;BME280;58809;47.984;7.964;2023-02-20T16:36:35;97887.38;;;11.72;61.73
43701;BME280;58809;47.984;7.964;2023-02-20T16:39:37;97886.00;;;11.45;63.46
43701;BME280;58809;47.984;7.964;2023-02-20T16:42:39;97893.81;;;11.22;64.37
43701;BME280;58809;47.984;7.964;2023-02-20T16:45:41;97893.00;;;10.96;65.29
43701;BME280;58809;47.984;7.964;2023-02-20T16:48:45;97893.03;;;10.72;66.44
43701;BME280;58809;47.984;7.964;2023-02-20T16:51:49;97897.66;;;10.53;67.06
43701;BME280;58809;47.984;7.964;2023-02-20T16:54:59;97892.84;;;10.40;67.45
43701;BME280;58809;47.984;7.964;2023-02-20T16:58:03;97898.69;;;10.18;68.06
43701;BME280;58809;47.984;7.964;2023-02-20T17:01:05;97896.66;;;9.95;69.31
43701;BME280;58809;47.984;7.964;2023-02-20T17:04:07;97898.84;;;9.66;69.75
43701;BME280;58809;47.984;7.964;2023-02-20T17:07:10;97910.88;;;9.34;70.75
43701;BME280;58809;47.984;7.964;2023-02-20T17:10:12;97900.00;;;9.11;71.92
43701;BME280;58809;47.984;7.964;2023-02-20T17:13:13;97911.50;;;9.01;72.17
43701;BME280;58809;47.984;7.964;2023-02-20T17:16:15;97903.59;;;8.83;72.74
43701;BME280;58809;47.984;7.964;2023-02-20T17:19:30;97912.81;;;8.61;73.65
43701;BME280;58809;47.984;7.964;2023-02-20T17:22:35;97913.06;;;8.40;74.80
43701;BME280;58809;47.984;7.964;2023-02-20T17:25:36;97913.03;;;8.22;75.07
43701;BME280;58809;47.984;7.964;2023-02-20T17:28:39;97915.22;;;8.09;75.64
43701;BME280;58809;47.984;7.964;2023-02-20T17:31:40;97925.13;;;7.97;76.71
43701;BME280;58809;47.984;7.964;2023-02-20T17:34:42;97924.50;;;7.85;76.98
43701;BME280;58809;47.984;7.964;2023-02-20T17:37:44;97924.41;;;7.77;77.30
43701;BME280;58809;47.984;7.964;2023-02-20T17:40:46;97934.69;;;7.70;78.09
43701;BME280;58809;47.984;7.964;2023-02-20T17:43:47;97936.28;;;7.54;78.88
43701;BME280;58809;47.984;7.964;2023-02-20T17:46:54;97930.59;;;7.48;79.45
43701;BME280;58809;47.984;7.964;2023-02-20T17:49:56;97930.34;;;7.42;79.27
43701;BME280;58809;47.984;7.964;2023-02-20T17:52:57;97933.41;;;7.37;79.40
43701;BME280;58809;47.984;7.964;2023-02-20T17:55:59;97941.72;;;7.32;79.53
43701;BME280;58809;47.984;7.964;2023-02-20T17:59:00;97931.13;;;7.15;80.00
43701;BME280;58809;47.984;7.964;2023-02-20T18:02:02;97937.63;;;7.01;80.51